AirNav   Air Wisconsin Up To $57,000 Bonus
 
 1451 users online  

OL31 Red Baron Ranch Airport
Coweta, Oklahoma, USA


FAA INFORMATION EFFECTIVE 03 NOVEMBER 2022

Location

FAA Identifier: OL31
Lat/Long: 35-56-25.2850N 095-43-39.3850W
35-56.421417N 095-43.656417W
35.9403569,-95.7276069
(estimated)
Elevation: 660 ft. / 201 m (estimated)
From city: 4 miles WSW of COWETA, OK
Time zone: UTC -6 (UTC -5 during Daylight Saving Time)
Zip code: 74429

Airport Operations

Airport use: Private use. Permission required prior to landing
Activation date: 08/2020
Control tower: no
ARTCC: KANSAS CITY CENTER
FSS: MC ALESTER FLIGHT SERVICE STATION
Attendance: 
Wind indicator: no
Segmented circle: no

Airport Communications

CTAF: 122.9
WX ASOS at RVS (14 nm NW): 126.5 (918-299-0740)
WX ASOS at TUL (17 nm NW): PHONE 918-831-6772
WX AWOS-3PT at OKM (20 nm SW): 118.225 (918-756-9502)

Nearby radio navigation aids

VOR radial/distance  VOR name  Freq  Var
TULr161/15.6TULSA VORTAC114.4008E
OKMr016/16.3OKMULGEE VOR/DME114.9008E

 
NDB name  Hdg/Dist  Freq  Var  ID
OILLR137/12.233803ETU - ..-
HENRYETTA019/35.026704EHET .... . -

Airport Services

Airframe service: NONE
Powerplant service: NONE
Bottled oxygen: NONE
Bulk oxygen: NONE

Runway Information

Runway 18/36

Dimensions: 2400 x 75 ft. / 732 x 23 m
Surface: turf, in fair condition
RUNWAY 18  RUNWAY 36
Latitude: 35-56.618500N35-56.224333N
Longitude: 095-43.677333W095-43.635500W
Elevation: 672.0 ft.638.0 ft.
Traffic pattern: rightright
Runway heading: 176 true356 true
Markings: nonenone
Touchdown point: yes, no lightsyes, no lights

Airport Ownership and Management from official FAA records

Ownership: Privately-owned
Owner: BRYAN ADAIR
22280 E. 151ST STREET SOUTH
COWETA, OK 74429
Phone 918-605-9195
Manager: BRYAN ADAIR
22280 E. 151ST STREET SOUTH
COWETA, OK 74429
Phone 918-605-9195

Airport Operational Statistics

Aircraft based on the field: 2
Single engine airplanes: 2
    

Instrument Procedures

There are no published instrument procedures at OL31.

Some nearby airports with instrument procedures:

KRVS - Tulsa Riverside Airport (14 nm NW)
KTUL - Tulsa International Airport (17 nm NW)
H68 - Hefner-Easley Airport (19 nm E)
KOKM - Okmulgee Regional Airport (20 nm SW)
KGCM - Claremore Regional Airport (24 nm NE)
 
Loc | Ops | Rwys | IFR | FBO | Links
Com | Nav | Svcs | Stats | Notes
Aerial photo
No photo
 
Airport distance calculator
Flying to Red Baron Ranch Airport? Find the distance to fly.

From to OL31

Sunrise and sunset
Times for 29-Nov-2022
 Local
(UTC-6)
 Zulu
(UTC)
Morning civil twilight06:4612:46
Sunrise07:1413:14
Sunset17:0823:08
Evening civil twilight17:3623:36

Current date and time
Zulu (UTC)  29-Nov-2022 17:13:26
Local (UTC-6)  29-Nov-2022 11:13:26
 
METAR
KRVS 
14nm NW 
291653Z 21012G23KT 10SM CLR 21/09 A2961 RMK AO2 PK WND 22026/1610 SLP034 T02060089
KTUL 
17nm NW 
291653Z 23014G28KT 10SM FEW030 20/08 A2961 RMK AO2 PK WND 23028/1619 SLP021 T02000083
KOKM 
20nm SW 
291655Z AUTO 23013G18KT 10SM CLR 21/08 A2964 RMK AO2 T02050082
KGCM 
25nm NE 
291655Z AUTO 23020G26KT 10SM CLR 21/11 A2961 RMK AO2
KMKO 
25nm SE 
291653Z AUTO 21012G24KT 10SM CLR 22/13 A2966 RMK AO2 PK WND 22031/1619 RAB36E46 SLP039 P0000 T02170128
KOWP 
25nm NW 
291655Z AUTO 25008G18KT 210V270 10SM CLR 22/06 A2964 RMK AO2 T02150064
KH71 
26nm NE 
291655Z AUTO 22015G26KT 10SM CLR 21/12 A2961 RMK AO2
TAF
KRVS 
14nm NW 
291126Z 2912/3012 19016G26KT P6SM SCT025 SCT250 WS020/20050KT TEMPO 2912/2916 BKN025 FM291600 21018G30KT P6SM SCT025 SCT250 FM292100 27012G20KT P6SM FEW250 FM300000 33014G24KT P6SM FEW250 FM300900 34006KT P6SM SKC
KTUL 
17nm NW 
291126Z 2912/3012 19015G27KT P6SM SCT025 SCT250 WS020/20050KT TEMPO 2912/2916 BKN025 FM291600 21018G30KT P6SM FEW025 SCT250 FM292100 27014G22KT P6SM FEW250 FM300000 33016G26KT P6SM FEW250 FM300900 34008KT P6SM SKC
NOTAMs
Click for the latest NOTAMs
NOTAMs are issued by the DoD/FAA and will open in a separate window not controlled by AirNav.

 

 
 

Would you like to see your business listed on this page?

 If your business provides an interesting product or service to pilots, flight crews, aircraft, or users of the Red Baron Ranch Airport, you should consider listing it here.  To start the listing process, click on the button below
 
Add a business
 

Other Pages about Red Baron Ranch Airport

Update a link
 
Copyright © AirNav, LLC. All rights reserved. Privacy Policy  Contact